| Record Date MM/DD/YYYY | Record Time HH:MM:SS | Record Julian Date NNN day of the year | Air Temperature Max (Degrees Fahrenheit F) | Time Max Air Temperature HH:MM:SS This is the time of max air temp for the prior hour interval listed for record [Time]. | Air Temperature Min (Degrees Fahrenheit F) | Time Min Air Temperature HH:MM:SS This is the time of min air temp for the prior hour interval listed for record [Time]. | Air Temperature Observed (Degrees Fahrenheit F) This is an instantaneous reading at the record [Time]. | Relative Humidity Max (Percent) | Time Max Relative Humidity HH:MM:SS This is the time of max relative humidity for the prior hour interval listed for record [Time]. | Relative Humidity Min (Percent) | Time Min Relative Humidity HH:MM:SS This is the time of min relative humidity for the prior hour interval listed for record [Time]. | Relative Humidity Observed (Percent) This is an instantaneous reading at the record [Time]. | Precipitation (Inches n.nn) rain fall that occurred during the prior hour interval listed for record [Time]. | Wind Speed (Miles Per Hour) Resultant Speed that occurred during the prior hour interval listed for record [Time]. | Wind Direction (Degrees) Resultant Direction that occurred during the prior hour interval listed for record [Time]. | Solar Radiation (Langley's) that occurred during the prior hour interval listed for record [Time]. | Soil Temperature Average at 2 inch depth (Degrees Fahrenheit F) that occurred during the prior hour interval listed for record [Time]. | Soil Temperature Observed at 2 inch depth (Degrees Fahrenheit F) This is an instantaneous reading at the record [Time]. | Soil Temperature Average at 4 inch depth (Degrees Fahrenheit F) that occurred during the prior hour interval listed for record [Time]. | Soil Temperature Observed at 4 inch depth (Degrees Fahrenheit F) This is an instantaneous reading at the record [Time]. |
|---|---|---|---|---|---|---|---|---|---|---|---|---|---|---|---|---|---|---|---|---|
| 04/29/2026 | 0:00:00 | 119 | 78 | 23:00:02 | 77 | 0:00:00 | 77 | 80 | 23:57:03 | 77 | 23:00:03 | 79.8 | 0 | |||||||
| 04/29/2026 | 1:00:00 | 119 | 77 | 0:01:00 | 75 | 0:59:04 | 75 | 84 | 1:00:00 | 80 | 0:00:01 | 83.7 | 0 | |||||||
| 04/29/2026 | 2:00:00 | 119 | 75 | 1:00:01 | 75 | 1:59:05 | 75 | 87 | 1:59:02 | 84 | 1:00:01 | 86.6 | 0 | |||||||
| 04/29/2026 | 3:00:00 | 119 | 75 | 2:02:05 | 74 | 2:58:05 | 74 | 89 | 2:59:01 | 87 | 2:00:01 | 89.3 | 0 | |||||||
| 04/29/2026 | 4:00:00 | 119 | 74 | 3:00:01 | 74 | 3:58:05 | 74 | 92 | 3:59:01 | 89 | 3:00:02 | 91.7 | 0 | |||||||
| 04/29/2026 | 5:00:00 | 119 | 74 | 4:00:01 | 73 | 4:40:03 | 73 | 93 | 4:59:04 | 92 | 4:00:03 | 93.4 | 0 | |||||||
| 04/29/2026 | 6:00:00 | 119 | 73 | 6:00:00 | 73 | 5:01:00 | 73 | 95 | 6:00:00 | 93 | 5:00:01 | 94.5 | 0 | |||||||
| 04/29/2026 | 7:00:00 | 119 | 74 | 6:35:01 | 73 | 6:58:04 | 73 | 96 | 6:59:01 | 94 | 6:36:05 | 95.6 | 0 | |||||||
| 04/29/2026 | 8:00:00 | 119 | 75 | 7:56:00 | 73 | 7:00:01 | 75 | 96 | 7:00:02 | 94 | 7:58:02 | 94 | 0 | |||||||
| 04/29/2026 | 9:00:00 | 119 | 76 | 8:59:01 | 75 | 8:00:01 | 76 | 94 | 8:43:02 | 94 | 8:56:05 | 93.6 | 0 | |||||||
| 04/29/2026 | 10:00:00 | 119 | 76 | 9:08:01 | 75 | 10:00:00 | 75 | 96 | 9:58:02 | 93 | 9:06:00 | 95.3 | 0 | |||||||
| 04/29/2026 | 11:00:00 | 119 | 75 | 10:11:04 | 71 | 10:36:01 | 72 | 97 | 10:38:02 | 95 | 10:19:03 | 95.9 | 0 | |||||||
| 04/29/2026 | 12:00:00 | 119 | 74 | 11:59:00 | 72 | 11:03:04 | 74 | 96 | 11:00:04 | 90 | 11:56:02 | 90.3 | 0 | |||||||
| 04/29/2026 | 13:00:00 | 119 | 74 | 12:06:05 | 72 | 12:57:00 | 73 | 91 | 12:01:00 | 89 | 12:21:02 | 89.7 | 0 | |||||||
| 04/29/2026 | 14:00:00 | 119 | 73 | 13:00:02 | 71 | 13:59:02 | 71 | 91 | 13:58:04 | 89 | 13:26:03 | 90.6 | 0 | |||||||
| 04/29/2026 | 15:00:00 | 119 | 71 | 14:00:01 | 69 | 14:56:03 | 69 | 95 | 14:48:03 | 91 | 14:00:02 | 94.6 | 0.07 | |||||||
| 04/29/2026 | 16:00:00 | 119 | 70 | 15:57:04 | 69 | 15:07:05 | 70 | 96 | 15:32:05 | 95 | 15:00:01 | 95.3 | 0.03 | |||||||
| 04/29/2026 | 17:00:00 | 119 | 70 | 16:09:03 | 69 | 16:35:01 | 70 | 97 | 16:29:01 | 95 | 16:02:00 | 96.4 | 0 | |||||||
| 04/29/2026 | 18:00:00 | 119 | 70 | 17:34:05 | 69 | 17:02:04 | 70 | 97 | 17:19:05 | 95 | 17:59:02 | 95.5 | 0 | |||||||
| 04/29/2026 | 19:00:00 | 119 | 70 | 18:00:05 | 69 | 18:57:04 | 69 | 96 | 18:00:01 | 94 | 18:48:02 | 94.8 | 0 | |||||||
| 04/29/2026 | 20:00:00 | 119 | 69 | 19:00:01 | 68 | 19:59:05 | 68 | 95 | 19:18:00 | 94 | 19:57:00 | 94.1 | 0 | |||||||
| 04/29/2026 | 21:00:00 | 119 | 68 | 20:00:01 | 66 | 20:40:05 | 66 | 96 | 20:56:00 | 94 | 20:03:02 | 95.5 | 0 | |||||||
| 04/29/2026 | 22:00:00 | 119 | 67 | 21:02:01 | 66 | 21:56:00 | 66 | 96 | 21:00:01 | 94 | 21:56:01 | 93.7 | 0 | |||||||
| 04/29/2026 | 23:00:00 | 119 | 66 | 22:22:05 | 66 | 22:55:00 | 66 | 94 | 22:53:01 | 93 | 22:11:05 | 93.7 | 0 | |||||||
| 04/30/2026 | 0:00:00 | 120 | 66 | 23:03:02 | 65 | 23:57:00 | 65 | 95 | 23:51:04 | 94 | 23:28:02 | 94.9 | 0.04 | |||||||
| 04/30/2026 | 1:00:00 | 120 | 65 | 0:00:01 | 64 | 0:58:04 | 64 | 97 | 0:59:02 | 94 | 0:08:01 | 97.1 | 0.17 | |||||||
| 04/30/2026 | 2:00:00 | 120 | 64 | 1:06:01 | 63 | 1:58:01 | 63 | 97 | 1:02:02 | 96 | 1:45:05 | 96.6 | 0.06 | |||||||
| 04/30/2026 | 3:00:00 | 120 | 63 | 2:02:01 | 62 | 3:00:00 | 62 | 98 | 2:28:02 | 97 | 2:01:00 | 97 | 0.08 | |||||||
| 04/30/2026 | 4:00:00 | 120 | 62 | 3:45:03 | 62 | 3:27:02 | 62 | 98 | 3:36:01 | 97 | 3:01:01 | 97.7 | 0.1 | |||||||
| 04/30/2026 | 5:00:00 | 120 | 62 | 4:03:02 | 62 | 4:29:05 | 62 | 98 | 4:03:02 | 97 | 4:29:05 | 97.6 | 0.01 | |||||||
| 04/30/2026 | 6:00:00 | 120 | 62 | 5:59:03 | 62 | 5:37:05 | 62 | 98 | 5:00:01 | 96 | 5:57:02 | 96.4 | 0 | |||||||
| 04/30/2026 | 7:00:00 | 120 | 63 | 6:59:00 | 62 | 6:18:00 | 63 | 96 | 6:00:01 | 93 | 6:53:05 | 93.3 | 0 | |||||||
| 04/30/2026 | 8:00:00 | 120 | 64 | 7:30:00 | 63 | 7:00:04 | 63 | 94 | 7:01:04 | 88 | 7:59:04 | 88.4 | 0 | |||||||
| 04/30/2026 | 9:00:00 | 120 | 64 | 8:15:01 | 63 | 8:53:00 | 63 | 89 | 8:14:04 | 87 | 8:41:04 | 87.2 | 0 | |||||||
| 04/30/2026 | 10:00:00 | 120 | 65 | 9:52:01 | 63 | 9:00:01 | 64 | 88 | 9:02:01 | 84 | 9:53:00 | 83.7 | 0 | |||||||
| 04/30/2026 | 11:00:00 | 120 | 66 | 10:53:04 | 64 | 10:02:05 | 66 | 85 | 10:05:03 | 81 | 10:57:03 | 82.2 | 0 | |||||||
| 04/30/2026 | 12:00:00 | 120 | 67 | 12:00:00 | 65 | 11:02:05 | 67 | 82 | 11:04:04 | 79 | 11:53:02 | 80 | 0 | |||||||
| 04/30/2026 | 13:00:00 | 120 | 67 | 12:37:03 | 66 | 12:21:05 | 67 | 81 | 12:24:01 | 78 | 12:51:05 | 78.37 | 0 | |||||||
| 04/30/2026 | 14:00:00 | 120 | 69 | 14:00:00 | 67 | 13:05:03 | 69 | 79 | 13:00:04 | 74 | 13:27:02 | 75.54 | 0 | |||||||
| 04/30/2026 | 15:00:00 | 120 | 69 | 14:00:04 | 68 | 14:39:03 | 69 | 76 | 14:11:02 | 72 | 14:59:02 | 72.82 | 0 | |||||||
| 04/30/2026 | 16:00:00 | 120 | 70 | 15:20:04 | 68 | 15:59:02 | 68 | 74 | 15:07:04 | 68 | 15:41:05 | 69.12 | 0 | |||||||
| 04/30/2026 | 17:00:00 | 120 | 68 | 16:24:05 | 67 | 16:58:05 | 67 | 71 | 16:45:00 | 68 | 16:22:01 | 70.62 | 0 | |||||||
| 04/30/2026 | 18:00:00 | 120 | 67 | 17:00:01 | 63 | 17:59:03 | 63 | 81 | 18:00:00 | 70 | 17:11:01 | 80.8 | 0.01 | |||||||
| 04/30/2026 | 19:00:00 | 120 | 63 | 18:00:01 | 61 | 18:59:02 | 61 | 89 | 18:57:05 | 80 | 18:00:03 | 88.4 | 0.05 | |||||||
| 04/30/2026 | 20:00:00 | 120 | 62 | 19:58:04 | 61 | 19:01:00 | 62 | 92 | 19:59:00 | 88 | 19:00:03 | 91.8 | 0.02 | |||||||
| 04/30/2026 | 21:00:00 | 120 | 62 | 20:00:03 | 61 | 20:35:03 | 61 | 93 | 20:58:04 | 92 | 20:00:04 | 93.2 | 0 | |||||||
| 04/30/2026 | 22:00:00 | 120 | 61 | 21:59:00 | 61 | 21:08:05 | 61 | 93 | 21:00:01 | 91 | 21:42:05 | 90.5 | 0 | |||||||
| 04/30/2026 | 23:00:00 | 120 | 61 | 22:19:04 | 61 | 22:56:04 | 61 | 92 | 22:44:00 | 90 | 22:09:02 | 91.8 | 0 | |||||||
| 05/01/2026 | 0:00:00 | 121 | 61 | 23:06:02 | 61 | 23:49:05 | 61 | 93 | 23:56:02 | 92 | 23:00:03 | 93.1 | 0 | |||||||
| 05/01/2026 | 1:00:00 | 121 | 61 | 0:09:00 | 61 | 0:57:05 | 61 | 94 | 0:59:00 | 93 | 0:00:02 | 94.1 | 0 | |||||||
| 05/01/2026 | 2:00:00 | 121 | 61 | 1:17:05 | 60 | 1:56:03 | 61 | 94 | 1:17:05 | 93 | 1:56:03 | 92.7 | 0 | |||||||
| 05/01/2026 | 3:00:00 | 121 | 61 | 2:00:02 | 59 | 2:59:05 | 60 | 93 | 2:00:01 | 91 | 2:59:05 | 90.7 | 0 | |||||||
| 05/01/2026 | 4:00:00 | 121 | 60 | 3:00:02 | 59 | 3:59:03 | 59 | 91 | 3:03:04 | 89 | 3:16:04 | 90.7 | 0.01 | |||||||
| 05/01/2026 | 5:00:00 | 121 | 59 | 4:29:05 | 59 | 4:52:04 | 59 | 91 | 4:08:02 | 89 | 4:28:01 | 90.2 | 0 | |||||||
| 05/01/2026 | 6:00:00 | 121 | 59 | 5:16:01 | 57 | 5:56:00 | 57 | 92 | 5:47:05 | 90 | 5:57:05 | 89.7 | 0 | |||||||
| 05/01/2026 | 7:00:00 | 121 | 58 | 6:46:04 | 57 | 6:27:03 | 57 | 93 | 7:00:00 | 88 | 6:04:00 | 92.8 | 0.01 | |||||||
| 05/01/2026 | 8:00:00 | 121 | 57 | 7:58:05 | 57 | 7:44:00 | 57 | 94 | 7:58:05 | 93 | 7:04:00 | 93.6 | 0.05 | |||||||
| 05/01/2026 | 9:00:00 | 121 | 58 | 8:56:05 | 57 | 8:00:01 | 58 | 94 | 8:21:04 | 92 | 8:58:04 | 92.5 | 0.05 | |||||||
| 05/01/2026 | 10:00:00 | 121 | 58 | 9:53:02 | 58 | 9:25:03 | 58 | 93 | 9:53:00 | 92 | 9:59:01 | 92.4 | 0.01 | |||||||
| 05/01/2026 | 11:00:00 | 121 | 58 | 10:24:00 | 58 | 10:13:04 | 58 | 94 | 10:49:05 | 92 | 10:13:02 | 92.9 | 0.02 | |||||||
| 05/01/2026 | 12:00:00 | 121 | 59 | 11:46:00 | 58 | 11:03:03 | 58 | 94 | 11:19:00 | 91 | 11:50:03 | 92.4 | 0.03 | |||||||
| 05/01/2026 | 13:00:00 | 121 | 59 | 12:59:03 | 58 | 12:02:03 | 59 | 93 | 12:35:00 | 91 | 12:48:05 | 91.8 | 0.02 | |||||||
| 05/01/2026 | 14:00:00 | 121 | 60 | 13:33:04 | 59 | 13:09:01 | 59 | 92 | 13:00:01 | 87 | 13:58:05 | 87.2 | 0 | |||||||
| 05/01/2026 | 15:00:00 | 121 | 60 | 14:26:00 | 59 | 14:03:01 | 60 | 88 | 14:08:00 | 85 | 14:54:02 | 86.2 | 0 | |||||||
| 05/01/2026 | 16:00:00 | 121 | 60 | 16:00:00 | 60 | 15:00:02 | 60 | 87 | 15:11:00 | 85 | 15:55:00 | 85.8 | 0 | |||||||
| 05/01/2026 | 17:00:00 | 121 | 60 | 16:53:02 | 60 | 16:09:00 | 60 | 86 | 16:00:02 | 81 | 16:38:04 | 81.3 | 0 | |||||||
| 05/01/2026 | 18:00:00 | 121 | 60 | 17:00:01 | 59 | 17:54:01 | 60 | 85 | 18:00:00 | 81 | 17:04:01 | 84.6 | 0 | |||||||
| 05/01/2026 | 19:00:00 | 121 | 60 | 18:29:00 | 59 | 18:07:04 | 59 | 90 | 19:00:00 | 84 | 18:06:05 | 89.6 | 0 | |||||||
| 05/01/2026 | 20:00:00 | 121 | 60 | 19:00:02 | 59 | 19:59:00 | 59 | 92 | 20:00:00 | 90 | 19:00:01 | 92.2 | 0 | |||||||
| 05/01/2026 | 21:00:00 | 121 | 59 | 20:00:02 | 58 | 20:42:02 | 59 | 93 | 20:59:04 | 92 | 20:00:01 | 93.1 | 0 | |||||||
| 05/01/2026 | 22:00:00 | 121 | 59 | 21:07:05 | 58 | 21:25:00 | 59 | 94 | 21:10:04 | 93 | 21:47:05 | 93.1 | 0.01 | |||||||
| 05/01/2026 | 23:00:00 | 121 | 59 | 22:00:01 | 58 | 22:59:00 | 58 | 93 | 22:02:00 | 90 | 22:34:00 | 92.2 | 0.01 | |||||||
| 05/02/2026 | 0:00:00 | 122 | 58 | 23:00:01 | 57 | 23:59:01 | 57 | 93 | 23:17:05 | 90 | 23:54:04 | 89.8 | 0.01 | |||||||
| 05/02/2026 | 1:00:00 | 122 | 57 | 0:00:01 | 57 | 0:22:02 | 57 | 91 | 0:34:01 | 90 | 0:00:01 | 90.4 | 0 | |||||||
| 05/02/2026 | 2:00:00 | 122 | 57 | 1:02:02 | 56 | 1:25:03 | 57 | 91 | 1:35:02 | 87 | 1:56:01 | 87.4 | 0 | |||||||
| 05/02/2026 | 3:00:00 | 122 | 57 | 2:00:01 | 56 | 2:30:01 | 56 | 89 | 2:28:05 | 87 | 2:52:04 | 87.2 | 0 | |||||||
| 05/02/2026 | 4:00:00 | 122 | 56 | 3:55:02 | 56 | 3:25:03 | 56 | 89 | 3:30:05 | 85 | 3:59:03 | 85.2 | 0 | |||||||
| 05/02/2026 | 5:00:00 | 122 | 56 | 4:00:01 | 56 | 4:43:04 | 56 | 87 | 4:37:05 | 85 | 4:00:03 | 85.7 | 0 | |||||||
| 05/02/2026 | 6:00:00 | 122 | 56 | 5:59:03 | 55 | 5:30:02 | 56 | 88 | 5:33:03 | 85 | 5:55:00 | 84.8 | 0 | |||||||
| 05/02/2026 | 7:00:00 | 122 | 60 | 6:58:05 | 56 | 6:16:01 | 60 | 85 | 6:03:05 | 75 | 6:59:01 | 75.84 | 0 | |||||||
| 05/02/2026 | 8:00:00 | 122 | 62 | 7:58:01 | 59 | 7:09:03 | 62 | 76 | 7:00:05 | 66 | 7:58:04 | 67.1 | 0 | |||||||
| 05/02/2026 | 9:00:00 | 122 | 65 | 8:56:04 | 62 | 8:00:02 | 64 | 69 | 8:01:02 | 58 | 8:57:03 | 59.83 | 0 | |||||||
| 05/02/2026 | 10:00:00 | 122 | 67 | 10:00:00 | 64 | 9:00:03 | 67 | 62 | 9:01:05 | 50 | 9:57:04 | 52.65 | 0 | |||||||
| 05/02/2026 | 11:00:00 | 122 | 68 | 10:58:05 | 66 | 10:04:05 | 68 | 55 | 10:20:04 | 47 | 10:43:01 | 47.97 | 0 | |||||||
| 05/02/2026 | 12:00:00 | 122 | 70 | 11:45:01 | 68 | 11:08:04 | 69 | 55 | 11:43:04 | 46 | 11:23:00 | 51.3 | 0 | |||||||
| 05/02/2026 | 13:00:00 | 122 | 71 | 12:50:01 | 69 | 12:05:01 | 70 | 56 | 12:01:02 | 41 | 12:54:01 | 43.76 | 0 | |||||||
| 05/02/2026 | 14:00:00 | 122 | 72 | 13:53:02 | 70 | 13:19:04 | 72 | 50 | 13:11:02 | 42 | 13:06:01 | 45.45 | 0 | |||||||
| 05/02/2026 | 15:00:00 | 122 | 72 | 14:26:00 | 71 | 14:30:02 | 71 | 49 | 14:48:02 | 41 | 14:56:01 | 43.51 | 0 | |||||||
| 05/02/2026 | 16:00:00 | 122 | 73 | 15:16:03 | 71 | 15:39:00 | 72 | 49 | 15:10:04 | 40 | 15:08:02 | 43.57 | 0 | |||||||
| 05/02/2026 | 17:00:00 | 122 | 73 | 16:17:05 | 71 | 16:58:04 | 71 | 47 | 16:44:02 | 40 | 16:06:05 | 45.18 | 0 | |||||||
| 05/02/2026 | 18:00:00 | 122 | 72 | 17:16:04 | 70 | 17:59:05 | 70 | 51 | 18:00:00 | 42 | 17:14:03 | 51.1 | 0 | |||||||
| 05/02/2026 | 19:00:00 | 122 | 70 | 18:00:01 | 64 | 19:00:00 | 64 | 67 | 19:00:00 | 51 | 18:00:05 | 66.92 | 0 | |||||||
| 05/02/2026 | 20:00:00 | 122 | 64 | 19:00:01 | 60 | 19:59:05 | 60 | 82 | 19:52:00 | 67 | 19:00:01 | 81.1 | 0 | |||||||
| 05/02/2026 | 21:00:00 | 122 | 60 | 20:00:01 | 58 | 20:55:01 | 58 | 88 | 21:00:00 | 81 | 20:00:01 | 88.2 | 0 | |||||||
| 05/02/2026 | 22:00:00 | 122 | 58 | 21:01:05 | 56 | 21:41:01 | 56 | 89 | 21:59:03 | 87 | 21:36:03 | 88.9 | 0 | |||||||
| 05/02/2026 | 23:00:00 | 122 | 56 | 22:10:05 | 54 | 22:59:00 | 54 | 92 | 23:00:00 | 89 | 22:00:01 | 92.1 | 0 | |||||||
| 05/03/2026 | 0:00:00 | 123 | 56 | 23:42:00 | 54 | 23:16:04 | 56 | 95 | 23:59:04 | 92 | 23:00:01 | 94.8 | 0 | |||||||
| 05/03/2026 | 1:00:00 | 123 | 56 | 0:00:01 | 54 | 1:00:00 | 54 | 95 | 0:51:03 | 94 | 0:06:00 | 95.1 | 0 | |||||||
| 05/03/2026 | 2:00:00 | 123 | 55 | 1:14:04 | 52 | 1:55:05 | 53 | 96 | 2:00:00 | 95 | 1:20:02 | 96.4 | 0 | |||||||
| 05/03/2026 | 3:00:00 | 123 | 54 | 2:30:04 | 51 | 2:59:04 | 51 | 97 | 2:53:01 | 96 | 2:14:03 | 96.6 | 0 | |||||||
| 05/03/2026 | 4:00:00 | 123 | 53 | 3:46:04 | 51 | 3:17:01 | 51 | 98 | 3:43:05 | 97 | 3:01:01 | 97.4 | 0 | |||||||
| 05/03/2026 | 5:00:00 | 123 | 52 | 4:16:01 | 50 | 4:36:04 | 52 | 98 | 4:41:02 | 97 | 4:06:05 | 98.1 | 0 | |||||||
| 05/03/2026 | 6:00:00 | 123 | 54 | 5:50:05 | 51 | 5:17:01 | 54 | 99 | 5:25:02 | 96 | 5:52:03 | 96 | 0 | |||||||
| 05/03/2026 | 7:00:00 | 123 | 62 | 6:59:05 | 54 | 6:00:02 | 62 | 96 | 6:01:01 | 89 | 6:55:03 | 88.8 | 0 | |||||||
| 05/03/2026 | 8:00:00 | 123 | 67 | 7:55:00 | 62 | 7:13:00 | 67 | 89 | 7:16:05 | 80 | 7:58:05 | 81 | 0 | |||||||
| 05/03/2026 | 9:00:00 | 123 | 70 | 8:49:01 | 66 | 8:04:00 | 69 | 82 | 8:05:05 | 69 | 9:00:00 | 68.96 | 0 | |||||||
| 05/03/2026 | 10:00:00 | 123 | 72 | 9:58:03 | 68 | 9:05:00 | 72 | 72 | 9:03:00 | 58 | 9:53:03 | 58.06 | 0 | |||||||
| 05/03/2026 | 11:00:00 | 123 | 74 | 10:50:04 | 71 | 10:03:02 | 73 | 62 | 10:15:00 | 50 | 10:51:02 | 52.85 | 0 | |||||||
| 05/03/2026 | 12:00:00 | 123 | 76 | 11:49:03 | 73 | 11:00:01 | 75 | 56 | 11:10:04 | 41 | 11:45:01 | 43.96 | 0 | |||||||
| 05/03/2026 | 13:00:00 | 123 | 77 | 12:44:03 | 75 | 12:23:02 | 76 | 48 | 12:43:04 | 40 | 12:58:01 | 41.69 | 0 | |||||||
| 05/03/2026 | 14:00:00 | 123 | 78 | 13:18:00 | 76 | 13:02:05 | 77 | 47 | 13:36:00 | 40 | 13:18:01 | 43.94 | 0 | |||||||
| 05/03/2026 | 15:00:00 | 123 | 79 | 14:38:01 | 77 | 14:26:01 | 78 | 49 | 14:18:03 | 40 | 14:54:03 | 43.93 | 0 | |||||||
| 05/03/2026 | 16:00:00 | 123 | 80 | 15:53:01 | 78 | 15:02:04 | 80 | 46 | 15:42:00 | 39 | 15:54:01 | 41.18 | 0 | |||||||
| 05/03/2026 | 17:00:00 | 123 | 81 | 16:32:01 | 78 | 16:04:00 | 79 | 44 | 16:19:01 | 38 | 16:34:00 | 40.31 | 0 | |||||||
| 05/03/2026 | 18:00:00 | 123 | 80 | 17:25:01 | 78 | 17:48:02 | 78 | 45 | 17:55:01 | 40 | 17:27:03 | 43.9 | 0 | |||||||
| 05/03/2026 | 19:00:00 | 123 | 78 | 18:00:01 | 70 | 19:00:00 | 70 | 65 | 19:00:00 | 44 | 18:00:02 | 64.63 | 0 | |||||||
| 05/03/2026 | 20:00:00 | 123 | 70 | 19:00:01 | 66 | 19:59:05 | 66 | 78 | 19:58:05 | 65 | 19:00:01 | 77.84 | 0 | |||||||
| 05/03/2026 | 21:00:00 | 123 | 66 | 20:59:01 | 65 | 20:30:05 | 66 | 80 | 20:28:01 | 77 | 20:01:04 | 77.64 | 0 | |||||||
| 05/03/2026 | 22:00:00 | 123 | 67 | 21:38:04 | 66 | 21:00:01 | 66 | 78 | 21:08:03 | 74 | 21:55:02 | 74.57 | 0 | |||||||
| 05/03/2026 | 23:00:00 | 123 | 66 | 22:15:04 | 65 | 22:46:01 | 66 | 75 | 22:01:00 | 72 | 22:56:05 | 72.37 | 0 | |||||||
| 05/04/2026 | 0:00:00 | 124 | 66 | 23:39:01 | 66 | 23:27:00 | 66 | 72 | 23:00:01 | 69 | 23:59:00 | 69.16 | 0 | |||||||
| 05/04/2026 | 1:00:00 | 124 | 66 | 0:01:00 | 65 | 0:21:03 | 65 | 70 | 0:20:01 | 68 | 0:58:01 | 68.43 | 0 | |||||||
| 05/04/2026 | 2:00:00 | 124 | 65 | 1:00:04 | 65 | 1:40:00 | 65 | 69 | 1:38:05 | 68 | 1:49:01 | 68.36 | 0 | |||||||
| 05/04/2026 | 3:00:00 | 124 | 65 | 2:08:05 | 64 | 2:57:05 | 64 | 70 | 2:57:03 | 67 | 2:07:03 | 69.25 | 0 | |||||||
| 05/04/2026 | 4:00:00 | 124 | 64 | 3:00:04 | 62 | 3:59:04 | 62 | 74 | 3:59:02 | 69 | 3:00:02 | 73.77 | 0 | |||||||
| 05/04/2026 | 5:00:00 | 124 | 62 | 4:00:02 | 61 | 4:59:05 | 61 | 77 | 5:00:00 | 74 | 4:00:01 | 76.78 | 0 | |||||||
| 05/04/2026 | 6:00:00 | 124 | 62 | 5:55:04 | 61 | 5:16:04 | 62 | 78 | 5:27:01 | 75 | 5:58:00 | 75.29 | 0 | |||||||
| 05/04/2026 | 7:00:00 | 124 | 65 | 7:00:00 | 62 | 6:07:03 | 65 | 76 | 6:05:04 | 70 | 6:56:02 | 71.54 | 0 | |||||||
| 05/04/2026 | 8:00:00 | 124 | 68 | 7:53:05 | 65 | 7:01:02 | 68 | 71 | 7:00:01 | 65 | 7:55:01 | 66.13 | 0 | |||||||
| 05/04/2026 | 9:00:00 | 124 | 71 | 9:00:00 | 68 | 8:03:00 | 71 | 67 | 8:05:02 | 59 | 8:57:02 | 60.41 | 0 | |||||||
| 05/04/2026 | 10:00:00 | 124 | 75 | 9:53:05 | 71 | 9:01:03 | 75 | 61 | 9:02:00 | 54 | 9:57:02 | 56.4 | 0 | |||||||
| 05/04/2026 | 11:00:00 | 124 | 77 | 10:53:05 | 74 | 10:18:05 | 77 | 56 | 10:00:01 | 47 | 10:57:04 | 48.54 | 0 | |||||||
| 05/04/2026 | 12:00:00 | 124 | 79 | 11:28:00 | 76 | 11:57:05 | 77 | 50 | 11:03:03 | 44 | 11:55:04 | 46.58 | 0 | |||||||
| 05/04/2026 | 13:00:00 | 124 | 80 | 12:48:02 | 77 | 12:00:01 | 79 | 48 | 12:00:05 | 42 | 12:55:00 | 44.27 | 0 | |||||||
| 05/04/2026 | 14:00:00 | 124 | 80 | 13:59:05 | 77 | 13:16:01 | 80 | 47 | 13:44:02 | 43 | 13:14:00 | 44.69 | 0 | |||||||
| 05/04/2026 | 15:00:00 | 124 | 80 | 14:41:03 | 78 | 14:47:04 | 79 | 47 | 14:05:00 | 43 | 14:18:03 | 45.56 | 0 | |||||||
| 05/04/2026 | 16:00:00 | 124 | 80 | 15:09:04 | 78 | 15:04:05 | 79 | 47 | 15:05:05 | 43 | 15:50:02 | 44.08 | 0 | |||||||
| 05/04/2026 | 17:00:00 | 124 | 80 | 16:04:04 | 79 | 16:49:02 | 79 | 46 | 16:03:04 | 43 | 16:05:05 | 45.04 | 0 | |||||||
| 05/04/2026 | 18:00:00 | 124 | 79 | 17:08:05 | 77 | 18:00:00 | 77 | 47 | 17:56:00 | 43 | 17:14:01 | 46.33 | 0 | |||||||
| 05/04/2026 | 19:00:00 | 124 | 77 | 18:00:01 | 72 | 19:00:00 | 72 | 54 | 18:59:00 | 46 | 18:00:01 | 53.77 | 0 | |||||||
| 05/04/2026 | 20:00:00 | 124 | 72 | 19:00:01 | 71 | 19:59:04 | 71 | 58 | 19:59:02 | 53 | 19:05:00 | 57.66 | 0 | |||||||
| 05/04/2026 | 21:00:00 | 124 | 71 | 20:00:01 | 70 | 20:58:05 | 70 | 61 | 20:57:02 | 58 | 20:01:05 | 60.69 | 0 | |||||||
| 05/04/2026 | 22:00:00 | 124 | 70 | 21:03:02 | 69 | 21:28:04 | 70 | 63 | 21:26:02 | 61 | 21:02:02 | 62.44 | 0 | |||||||
| 05/04/2026 | 23:00:00 | 124 | 70 | 22:00:03 | 69 | 22:55:03 | 69 | 65 | 22:55:00 | 62 | 22:05:03 | 64.78 | 0 | |||||||
| 05/05/2026 | 0:00:00 | 125 | 69 | 23:01:04 | 68 | 23:44:04 | 68 | 67 | 23:59:00 | 65 | 23:00:02 | 66.72 | 0 | |||||||
| 05/05/2026 | 1:00:00 | 125 | 68 | 0:00:01 | 66 | 0:59:05 | 66 | 72 | 1:00:00 | 67 | 0:00:01 | 71.83 | 0 | |||||||
| 05/05/2026 | 2:00:00 | 125 | 66 | 1:00:01 | 65 | 1:59:04 | 65 | 76 | 1:59:02 | 72 | 1:00:04 | 75.51 | 0 | |||||||
| 05/05/2026 | 3:00:00 | 125 | 65 | 2:57:00 | 64 | 2:33:01 | 65 | 77 | 2:37:00 | 75 | 2:02:04 | 76.94 | 0 | |||||||
| 05/05/2026 | 4:00:00 | 125 | 65 | 3:01:05 | 63 | 3:56:00 | 63 | 80 | 3:56:02 | 77 | 3:03:01 | 79.75 | 0 | |||||||
| 05/05/2026 | 5:00:00 | 125 | 64 | 4:59:05 | 63 | 4:04:00 | 64 | 80 | 4:17:01 | 79 | 4:55:05 | 79.26 | 0 | |||||||
| 05/05/2026 | 6:00:00 | 125 | 67 | 5:58:05 | 64 | 5:01:04 | 67 | 79 | 5:06:05 | 77 | 5:56:00 | 77.29 | 0 | |||||||
| 05/05/2026 | 7:00:00 | 125 | 67 | 7:00:00 | 67 | 6:02:03 | 67 | 78 | 6:51:01 | 77 | 6:02:04 | 78.14 | 0 | |||||||
| 05/05/2026 | 8:00:00 | 125 | 69 | 7:59:04 | 67 | 7:00:03 | 69 | 79 | 7:59:04 | 78 | 7:02:00 | 79.17 | 0 | |||||||
| 05/05/2026 | 9:00:00 | 125 | 70 | 9:00:00 | 69 | 8:00:02 | 70 | 79 | 8:13:04 | 78 | 8:41:02 | 78.96 | 0 | |||||||
| 05/05/2026 | 10:00:00 | 125 | 71 | 9:57:02 | 70 | 9:00:01 | 71 | 79 | 9:00:01 | 77 | 9:42:04 | 77.45 | 0 | |||||||
| 05/05/2026 | 11:00:00 | 125 | 75 | 10:57:04 | 71 | 10:00:03 | 75 | 78 | 10:01:02 | 73 | 10:59:02 | 73.19 | 0 | |||||||
| 05/05/2026 | 12:00:00 | 125 | 77 | 11:20:04 | 75 | 11:00:01 | 76 | 75 | 11:59:03 | 71 | 11:21:01 | 74.21 | 0 | |||||||
| 05/05/2026 | 13:00:00 | 125 | 76 | 12:15:03 | 75 | 12:59:03 | 75 | 77 | 13:00:00 | 73 | 12:13:01 | 76.8 | 0 | |||||||
| 05/05/2026 | 14:00:00 | 125 | 77 | 13:53:05 | 75 | 13:16:05 | 77 | 79 | 13:31:00 | 76 | 13:55:00 | 76.39 | 0 | |||||||
| 05/05/2026 | 15:00:00 | 125 | 79 | 15:00:00 | 77 | 14:00:02 | 79 | 76 | 14:01:04 | 74 | 14:12:02 | 74.09 | 0 | |||||||
| 05/05/2026 | 16:00:00 | 125 | 80 | 15:32:03 | 78 | 15:12:01 | 79 | 74 | 15:55:01 | 72 | 15:33:01 | 73.49 | 0 | |||||||
| 05/05/2026 | 17:00:00 | 125 | 80 | 16:25:02 | 78 | 16:58:00 | 78 | 75 | 16:59:05 | 72 | 16:27:02 | 74.84 | 0 | |||||||
| 05/05/2026 | 18:00:00 | 125 | 78 | 17:00:05 | 77 | 17:59:05 | 77 | 77 | 17:59:02 | 75 | 17:06:04 | 77.22 | 0 | |||||||
| 05/05/2026 | 19:00:00 | 125 | 77 | 18:09:00 | 76 | 18:58:04 | 76 | 80 | 19:00:00 | 77 | 18:00:01 | 80.1 | 0 | |||||||
| 05/05/2026 | 20:00:00 | 125 | 77 | 19:24:04 | 76 | 20:00:00 | 76 | 81 | 20:00:00 | 80 | 19:04:02 | 81.3 | 0 | |||||||
| 05/05/2026 | 21:00:00 | 125 | 76 | 20:22:05 | 76 | 20:53:01 | 76 | 83 | 20:59:04 | 81 | 20:00:02 | 82.7 | 0 | |||||||
| 05/05/2026 | 22:00:00 | 125 | 76 | 21:05:00 | 76 | 21:52:01 | 76 | 84 | 21:57:04 | 83 | 21:06:05 | 83.9 | 0 | |||||||
| 05/05/2026 | 23:00:00 | 125 | 76 | 22:00:01 | 75 | 22:57:03 | 75 | 85 | 22:59:03 | 84 | 22:00:01 | 85.4 | 0 | |||||||
| 05/06/2026 | 0:00:00 | 126 | 75 | 23:04:04 | 75 | 23:27:04 | 75 | 86 | 23:51:02 | 85 | 23:00:04 | 86.2 | 0 | |||||||
| 05/06/2026 | 1:00:00 | 126 | 75 | 0:05:01 | 74 | 0:57:05 | 75 | 88 | 0:58:02 | 86 | 0:02:00 | 87.5 | 0 | |||||||
| 05/06/2026 | 2:00:00 | 126 | 75 | 1:00:01 | 74 | 1:30:05 | 74 | 89 | 1:31:01 | 87 | 1:02:00 | 88.1 | 0 | |||||||
| 05/06/2026 | 3:00:00 | 126 | 75 | 2:24:03 | 74 | 3:00:00 | 74 | 88 | 2:59:04 | 87 | 2:28:02 | 88.3 | 0 | |||||||
| 05/06/2026 | 4:00:00 | 126 | 74 | 3:00:01 | 74 | 3:17:04 | 74 | 90 | 3:52:02 | 88 | 3:00:03 | 89.5 | 0 | |||||||
| Average | 67.73 | 66.12 | 66.9 | 80.36 | 76.24 | 78.31 | 0.01 | 0 | 0 | 0 | 0 | 0 | 0 | |||||||
| Total | 0.87 |